Pagrindinis puslapis
METAR-TAF:

METAR-TAF

Oro uostai :

Loei, Tailandas

platuma: 17-27N, ilguma: 101-44E, Aukštis: 253 m

Dabartinis oras

Ataskaita buvo paskelbta 8 valandos ir 38 minutes, ne 12:00 UTC
Ramus vėjas
Temperatūra 24°C
Drėgmė 100%
Slėgis 1007 hPa
Matomumas: 8000 m
Su prošvaistėmis ne aukštis 2500 ft
lietus

METAR: VTUL 141200Z 00000KT 8000 -RA BKN025 24/24 Q1007 NOSIG

Laikas: 03:38 (20:38 UTC)

Prognozė

Ataskaita buvo paskelbta 3 valandos ir 38 minutes, ne 17:00 UTC
Prognozė galioja nuo 14 metu 18 UTC su 15 metu 18 UTC
Vėjas 5 kt iš Pietų
Matomumas: 8000 m
Mažai debesys ne aukštis 3000 ft
Su prošvaistėmis ne aukštis 10000 ft
Laikinai
nuo 15 metu 07 UTC su 15 metu 13 UTC
Vėjas 15 kt nuo kintamojo kryptimis
Matomumas: 4500 m
Mažai debesys ne aukštis 1800 ft, Liūtiniai kamuoliniai debesys.
Su prošvaistėmis ne aukštis 2500 ft
Su prošvaistėmis ne aukštis 8000 ft
perkūnija, lietus

TAF: VTUL 141700Z 1418/1518 18005KT 8000 FEW030 BKN100 TEMPO 1507/1513 VRB15KT 4500 TSRA FEW018CB BKN025 BKN080

Orai ataskaitas ir orų prognozės (METAR, TAF).

turimą stotys yra geltonos ir raudonos taškus žemėlapyje.

Perkelti pele per norėdami pamatyti stoties vardą.

Tada spustelėkite, norėdami matyti oro stebėjimo ir prognozės.

Norėdami pakeisti žemėlapį: spustelėkite ant žalios mygtukų su juodo kryžiaus žemyn,; žalią mygtuką su brūkšneliu, jei norite nutolinti; arba žalių rodyklių gretimoms žemėlapius.


METAR-TAF: